sensor_id;sensor_type;location;lat;lon;timestamp;P1;durP1;ratioP1;P2;durP2;ratioP2
51862;SDS011;37900;52.996;6.278;2023-08-07T00:00:46;3.10;;;2.30;;
51862;SDS011;37900;52.996;6.278;2023-08-07T00:03:12;3.72;;;2.30;;
51862;SDS011;37900;52.996;6.278;2023-08-07T00:05:44;4.18;;;2.63;;
51862;SDS011;37900;52.996;6.278;2023-08-07T00:08:11;4.75;;;2.08;;
51862;SDS011;37900;52.996;6.278;2023-08-07T00:10:37;3.47;;;2.20;;
51862;SDS011;37900;52.996;6.278;2023-08-07T00:13:02;3.78;;;2.13;;
51862;SDS011;37900;52.996;6.278;2023-08-07T00:15:28;2.72;;;2.22;;
51862;SDS011;37900;52.996;6.278;2023-08-07T00:17:54;3.03;;;2.30;;
51862;SDS011;37900;52.996;6.278;2023-08-07T00:20:20;3.90;;;2.47;;
51862;SDS011;37900;52.996;6.278;2023-08-07T00:22:46;2.80;;;2.13;;
51862;SDS011;37900;52.996;6.278;2023-08-07T00:25:12;4.38;;;2.47;;
51862;SDS011;37900;52.996;6.278;2023-08-07T00:27:37;2.55;;;1.90;;
51862;SDS011;37900;52.996;6.278;2023-08-07T00:30:03;3.83;;;2.50;;
51862;SDS011;37900;52.996;6.278;2023-08-07T00:32:29;4.65;;;2.05;;
51862;SDS011;37900;52.996;6.278;2023-08-07T00:34:55;3.42;;;2.10;;
51862;SDS011;37900;52.996;6.278;2023-08-07T00:37:20;4.13;;;2.15;;
51862;SDS011;37900;52.996;6.278;2023-08-07T00:39:46;3.45;;;1.88;;
51862;SDS011;37900;52.996;6.278;2023-08-07T00:42:12;3.03;;;2.20;;
51862;SDS011;37900;52.996;6.278;2023-08-07T00:44:38;4.00;;;2.03;;
51862;SDS011;37900;52.996;6.278;2023-08-07T00:47:03;3.42;;;2.67;;
51862;SDS011;37900;52.996;6.278;2023-08-07T00:49:30;2.22;;;1.73;;
51862;SDS011;37900;52.996;6.278;2023-08-07T00:51:56;2.78;;;2.45;;
51862;SDS011;37900;52.996;6.278;2023-08-07T00:54:22;2.55;;;2.00;;
51862;SDS011;37900;52.996;6.278;2023-08-07T00:56:49;3.45;;;1.90;;
51862;SDS011;37900;52.996;6.278;2023-08-07T00:59:15;2.60;;;1.88;;
51862;SDS011;37900;52.996;6.278;2023-08-07T01:01:41;2.83;;;1.77;;
51862;SDS011;37900;52.996;6.278;2023-08-07T01:04:07;4.70;;;2.33;;
51862;SDS011;37900;52.996;6.278;2023-08-07T01:06:33;2.35;;;1.65;;
51862;SDS011;37900;52.996;6.278;2023-08-07T01:08:59;2.70;;;2.00;;
51862;SDS011;37900;52.996;6.278;2023-08-07T01:16:52;2.47;;;2.00;;
51862;SDS011;37900;52.996;6.278;2023-08-07T01:19:34;2.33;;;1.80;;
51862;SDS011;37900;52.996;6.278;2023-08-07T01:22:05;2.90;;;1.98;;
51862;SDS011;37900;52.996;6.278;2023-08-07T01:24:34;2.45;;;1.65;;
51862;SDS011;37900;52.996;6.278;2023-08-07T01:27:10;2.97;;;1.70;;
51862;SDS011;37900;52.996;6.278;2023-08-07T01:29:43;3.05;;;2.30;;
51862;SDS011;37900;52.996;6.278;2023-08-07T01:35:27;2.50;;;1.60;;
51862;SDS011;37900;52.996;6.278;2023-08-07T01:37:57;2.60;;;1.80;;
51862;SDS011;37900;52.996;6.278;2023-08-07T01:40:24;3.22;;;2.00;;
51862;SDS011;37900;52.996;6.278;2023-08-07T01:45:24;2.50;;;2.10;;
51862;SDS011;37900;52.996;6.278;2023-08-07T01:47:51;2.53;;;1.70;;
51862;SDS011;37900;52.996;6.278;2023-08-07T01:50:18;2.47;;;1.58;;
51862;SDS011;37900;52.996;6.278;2023-08-07T01:52:45;3.05;;;2.25;;
51862;SDS011;37900;52.996;6.278;2023-08-07T01:55:12;2.70;;;1.80;;
51862;SDS011;37900;52.996;6.278;2023-08-07T01:57:39;1.95;;;1.58;;
51862;SDS011;37900;52.996;6.278;2023-08-07T02:00:05;2.35;;;1.70;;
51862;SDS011;37900;52.996;6.278;2023-08-07T02:02:32;3.03;;;1.48;;
51862;SDS011;37900;52.996;6.278;2023-08-07T02:04:57;2.58;;;1.60;;
51862;SDS011;37900;52.996;6.278;2023-08-07T02:07:23;2.75;;;1.80;;
51862;SDS011;37900;52.996;6.278;2023-08-07T02:09:49;3.28;;;1.70;;
51862;SDS011;37900;52.996;6.278;2023-08-07T02:12:15;3.00;;;1.80;;
51862;SDS011;37900;52.996;6.278;2023-08-07T02:14:40;2.33;;;1.67;;
51862;SDS011;37900;52.996;6.278;2023-08-07T02:17:06;3.40;;;1.80;;
51862;SDS011;37900;52.996;6.278;2023-08-07T02:19:32;2.60;;;1.80;;
51862;SDS011;37900;52.996;6.278;2023-08-07T02:21:57;3.25;;;2.00;;
51862;SDS011;37900;52.996;6.278;2023-08-07T02:24:23;2.63;;;1.70;;
51862;SDS011;37900;52.996;6.278;2023-08-07T02:26:49;2.30;;;1.90;;
51862;SDS011;37900;52.996;6.278;2023-08-07T02:29:14;2.40;;;1.67;;
51862;SDS011;37900;52.996;6.278;2023-08-07T02:31:40;2.58;;;1.60;;
51862;SDS011;37900;52.996;6.278;2023-08-07T02:34:06;3.00;;;2.05;;
51862;SDS011;37900;52.996;6.278;2023-08-07T02:36:32;3.28;;;1.98;;
51862;SDS011;37900;52.996;6.278;2023-08-07T02:38:57;2.42;;;1.80;;
51862;SDS011;37900;52.996;6.278;2023-08-07T02:41:23;2.78;;;2.10;;
51862;SDS011;37900;52.996;6.278;2023-08-07T02:43:49;2.30;;;1.67;;
51862;SDS011;37900;52.996;6.278;2023-08-07T02:46:14;2.85;;;1.88;;
51862;SDS011;37900;52.996;6.278;2023-08-07T02:48:40;2.67;;;1.63;;
51862;SDS011;37900;52.996;6.278;2023-08-07T02:51:06;2.70;;;1.50;;
51862;SDS011;37900;52.996;6.278;2023-08-07T02:53:31;2.38;;;1.65;;
51862;SDS011;37900;52.996;6.278;2023-08-07T02:55:57;2.67;;;1.90;;
51862;SDS011;37900;52.996;6.278;2023-08-07T02:58:22;2.55;;;1.70;;
51862;SDS011;37900;52.996;6.278;2023-08-07T03:00:48;2.08;;;1.70;;
51862;SDS011;37900;52.996;6.278;2023-08-07T03:03:14;2.97;;;1.60;;
51862;SDS011;37900;52.996;6.278;2023-08-07T03:05:47;3.17;;;1.70;;
51862;SDS011;37900;52.996;6.278;2023-08-07T03:08:14;3.28;;;1.83;;
51862;SDS011;37900;52.996;6.278;2023-08-07T03:10:39;2.78;;;1.70;;
51862;SDS011;37900;52.996;6.278;2023-08-07T03:13:05;2.05;;;1.70;;
51862;SDS011;37900;52.996;6.278;2023-08-07T03:15:31;2.03;;;1.73;;
51862;SDS011;37900;52.996;6.278;2023-08-07T03:17:56;2.72;;;1.90;;
51862;SDS011;37900;52.996;6.278;2023-08-07T03:20:22;2.53;;;1.42;;
51862;SDS011;37900;52.996;6.278;2023-08-07T03:22:48;2.45;;;1.85;;
51862;SDS011;37900;52.996;6.278;2023-08-07T03:25:14;2.28;;;1.60;;
51862;SDS011;37900;52.996;6.278;2023-08-07T03:27:39;3.28;;;1.85;;
51862;SDS011;37900;52.996;6.278;2023-08-07T03:30:05;3.42;;;2.22;;
51862;SDS011;37900;52.996;6.278;2023-08-07T03:32:31;2.65;;;1.85;;
51862;SDS011;37900;52.996;6.278;2023-08-07T03:34:57;2.30;;;1.60;;
51862;SDS011;37900;52.996;6.278;2023-08-07T03:37:23;3.80;;;1.77;;
51862;SDS011;37900;52.996;6.278;2023-08-07T03:39:48;2.67;;;1.67;;
51862;SDS011;37900;52.996;6.278;2023-08-07T03:42:15;2.50;;;1.80;;
51862;SDS011;37900;52.996;6.278;2023-08-07T03:44:40;2.40;;;1.60;;
51862;SDS011;37900;52.996;6.278;2023-08-07T03:47:06;2.63;;;1.75;;
51862;SDS011;37900;52.996;6.278;2023-08-07T03:49:32;2.63;;;1.80;;
51862;SDS011;37900;52.996;6.278;2023-08-07T03:51:57;2.10;;;1.80;;
51862;SDS011;37900;52.996;6.278;2023-08-07T03:54:24;2.73;;;1.87;;
51862;SDS011;37900;52.996;6.278;2023-08-07T03:56:50;2.65;;;1.40;;
51862;SDS011;37900;52.996;6.278;2023-08-07T03:59:16;3.03;;;2.10;;
51862;SDS011;37900;52.996;6.278;2023-08-07T04:01:42;3.15;;;1.80;;
51862;SDS011;37900;52.996;6.278;2023-08-07T04:04:08;2.28;;;1.77;;
51862;SDS011;37900;52.996;6.278;2023-08-07T04:06:34;2.58;;;1.65;;
51862;SDS011;37900;52.996;6.278;2023-08-07T04:08:59;3.22;;;1.75;;
51862;SDS011;37900;52.996;6.278;2023-08-07T04:11:26;2.47;;;1.63;;
51862;SDS011;37900;52.996;6.278;2023-08-07T04:13:52;1.90;;;1.40;;
51862;SDS011;37900;52.996;6.278;2023-08-07T04:16:18;2.22;;;1.60;;
51862;SDS011;37900;52.996;6.278;2023-08-07T04:18:43;1.95;;;1.50;;
51862;SDS011;37900;52.996;6.278;2023-08-07T04:21:09;2.40;;;1.70;;
51862;SDS011;37900;52.996;6.278;2023-08-07T04:23:35;3.08;;;1.67;;
51862;SDS011;37900;52.996;6.278;2023-08-07T04:26:00;2.85;;;1.65;;
51862;SDS011;37900;52.996;6.278;2023-08-07T04:28:29;2.70;;;1.70;;
51862;SDS011;37900;52.996;6.278;2023-08-07T04:30:55;3.38;;;1.73;;
51862;SDS011;37900;52.996;6.278;2023-08-07T04:33:21;2.58;;;1.63;;
51862;SDS011;37900;52.996;6.278;2023-08-07T04:35:47;2.63;;;1.67;;
51862;SDS011;37900;52.996;6.278;2023-08-07T04:38:13;2.20;;;1.60;;
51862;SDS011;37900;52.996;6.278;2023-08-07T04:40:44;1.52;;;1.42;;
51862;SDS011;37900;52.996;6.278;2023-08-07T04:43:13;2.22;;;1.58;;
51862;SDS011;37900;52.996;6.278;2023-08-07T04:45:40;2.83;;;1.70;;
51862;SDS011;37900;52.996;6.278;2023-08-07T04:48:07;2.47;;;1.60;;
51862;SDS011;37900;52.996;6.278;2023-08-07T04:50:33;2.95;;;1.52;;
51862;SDS011;37900;52.996;6.278;2023-08-07T04:52:59;2.65;;;1.73;;
51862;SDS011;37900;52.996;6.278;2023-08-07T04:55:25;1.88;;;1.40;;
51862;SDS011;37900;52.996;6.278;2023-08-07T04:57:51;1.97;;;1.60;;
51862;SDS011;37900;52.996;6.278;2023-08-07T05:00:19;1.88;;;1.35;;
51862;SDS011;37900;52.996;6.278;2023-08-07T05:02:46;3.00;;;1.70;;
51862;SDS011;37900;52.996;6.278;2023-08-07T05:05:13;3.25;;;1.65;;
51862;SDS011;37900;52.996;6.278;2023-08-07T05:07:40;1.92;;;1.50;;
51862;SDS011;37900;52.996;6.278;2023-08-07T05:10:06;3.42;;;1.58;;
51862;SDS011;37900;52.996;6.278;2023-08-07T05:12:32;1.55;;;1.30;;
51862;SDS011;37900;52.996;6.278;2023-08-07T05:14:57;2.55;;;1.75;;
51862;SDS011;37900;52.996;6.278;2023-08-07T05:17:23;2.15;;;1.60;;
51862;SDS011;37900;52.996;6.278;2023-08-07T05:19:49;2.58;;;1.60;;
51862;SDS011;37900;52.996;6.278;2023-08-07T05:22:15;1.20;;;1.10;;
51862;SDS011;37900;52.996;6.278;2023-08-07T05:24:41;2.42;;;1.50;;
51862;SDS011;37900;52.996;6.278;2023-08-07T05:27:10;1.77;;;1.48;;
51862;SDS011;37900;52.996;6.278;2023-08-07T05:29:36;1.63;;;1.50;;
51862;SDS011;37900;52.996;6.278;2023-08-07T05:32:12;2.30;;;1.70;;
51862;SDS011;37900;52.996;6.278;2023-08-07T05:34:39;2.47;;;1.70;;
51862;SDS011;37900;52.996;6.278;2023-08-07T05:37:05;2.27;;;1.57;;
51862;SDS011;37900;52.996;6.278;2023-08-07T05:39:31;3.40;;;1.73;;
51862;SDS011;37900;52.996;6.278;2023-08-07T05:41:58;1.85;;;1.48;;
51862;SDS011;37900;52.996;6.278;2023-08-07T05:44:24;1.80;;;1.25;;
51862;SDS011;37900;52.996;6.278;2023-08-07T05:46:50;1.40;;;1.25;;
51862;SDS011;37900;52.996;6.278;2023-08-07T05:49:16;2.30;;;1.65;;
51862;SDS011;37900;52.996;6.278;2023-08-07T05:51:42;2.63;;;1.50;;
51862;SDS011;37900;52.996;6.278;2023-08-07T05:54:07;1.67;;;1.33;;
51862;SDS011;37900;52.996;6.278;2023-08-07T05:56:37;1.75;;;1.55;;
51862;SDS011;37900;52.996;6.278;2023-08-07T05:59:03;2.45;;;1.58;;
51862;SDS011;37900;52.996;6.278;2023-08-07T06:01:29;2.42;;;1.70;;
51862;SDS011;37900;52.996;6.278;2023-08-07T06:03:59;2.45;;;1.70;;
51862;SDS011;37900;52.996;6.278;2023-08-07T06:06:25;1.60;;;1.20;;
51862;SDS011;37900;52.996;6.278;2023-08-07T06:11:19;2.05;;;1.70;;
51862;SDS011;37900;52.996;6.278;2023-08-07T06:13:45;1.92;;;1.30;;
51862;SDS011;37900;52.996;6.278;2023-08-07T06:16:10;1.55;;;1.30;;
51862;SDS011;37900;52.996;6.278;2023-08-07T06:18:36;2.70;;;1.35;;
51862;SDS011;37900;52.996;6.278;2023-08-07T06:21:02;1.80;;;1.52;;
51862;SDS011;37900;52.996;6.278;2023-08-07T06:23:30;2.25;;;1.50;;
51862;SDS011;37900;52.996;6.278;2023-08-07T06:25:56;2.22;;;1.48;;
51862;SDS011;37900;52.996;6.278;2023-08-07T06:28:22;3.08;;;1.60;;
51862;SDS011;37900;52.996;6.278;2023-08-07T06:30:47;2.95;;;1.40;;
51862;SDS011;37900;52.996;6.278;2023-08-07T06:33:13;1.77;;;1.30;;
51862;SDS011;37900;52.996;6.278;2023-08-07T06:35:39;1.95;;;1.33;;
51862;SDS011;37900;52.996;6.278;2023-08-07T06:38:05;2.38;;;1.45;;
51862;SDS011;37900;52.996;6.278;2023-08-07T06:40:31;1.92;;;1.42;;
51862;SDS011;37900;52.996;6.278;2023-08-07T06:42:57;1.75;;;1.40;;
51862;SDS011;37900;52.996;6.278;2023-08-07T06:45:22;2.97;;;1.40;;
51862;SDS011;37900;52.996;6.278;2023-08-07T06:47:48;1.77;;;1.38;;
51862;SDS011;37900;52.996;6.278;2023-08-07T06:50:14;2.42;;;1.52;;
51862;SDS011;37900;52.996;6.278;2023-08-07T06:52:40;1.90;;;1.27;;
51862;SDS011;37900;52.996;6.278;2023-08-07T06:55:06;3.53;;;1.30;;
51862;SDS011;37900;52.996;6.278;2023-08-07T06:57:32;2.63;;;1.40;;
51862;SDS011;37900;52.996;6.278;2023-08-07T06:59:57;3.00;;;1.40;;
51862;SDS011;37900;52.996;6.278;2023-08-07T07:02:23;2.70;;;1.60;;
51862;SDS011;37900;52.996;6.278;2023-08-07T07:04:49;2.45;;;1.60;;
51862;SDS011;37900;52.996;6.278;2023-08-07T07:07:14;2.00;;;1.58;;
51862;SDS011;37900;52.996;6.278;2023-08-07T07:09:40;2.25;;;1.42;;
51862;SDS011;37900;52.996;6.278;2023-08-07T07:12:06;1.95;;;1.30;;
51862;SDS011;37900;52.996;6.278;2023-08-07T07:14:32;2.20;;;1.60;;
51862;SDS011;37900;52.996;6.278;2023-08-07T07:17:01;2.80;;;1.48;;
51862;SDS011;37900;52.996;6.278;2023-08-07T07:19:27;2.88;;;1.45;;
51862;SDS011;37900;52.996;6.278;2023-08-07T07:21:52;4.25;;;1.48;;
51862;SDS011;37900;52.996;6.278;2023-08-07T07:24:18;3.10;;;1.70;;
51862;SDS011;37900;52.996;6.278;2023-08-07T07:26:44;1.92;;;1.48;;
51862;SDS011;37900;52.996;6.278;2023-08-07T07:29:10;1.80;;;1.40;;
51862;SDS011;37900;52.996;6.278;2023-08-07T07:31:36;4.35;;;1.60;;
51862;SDS011;37900;52.996;6.278;2023-08-07T07:34:02;2.33;;;1.70;;
51862;SDS011;37900;52.996;6.278;2023-08-07T07:36:28;2.95;;;1.45;;
51862;SDS011;37900;52.996;6.278;2023-08-07T07:38:54;3.20;;;1.45;;
51862;SDS011;37900;52.996;6.278;2023-08-07T07:41:21;4.00;;;2.17;;
51862;SDS011;37900;52.996;6.278;2023-08-07T07:43:47;6.07;;;3.45;;
51862;SDS011;37900;52.996;6.278;2023-08-07T07:46:13;7.15;;;3.58;;
51862;SDS011;37900;52.996;6.278;2023-08-07T07:48:39;7.85;;;3.63;;
51862;SDS011;37900;52.996;6.278;2023-08-07T07:51:04;5.80;;;3.30;;
51862;SDS011;37900;52.996;6.278;2023-08-07T07:53:30;7.13;;;4.43;;
51862;SDS011;37900;52.996;6.278;2023-08-07T07:55:56;5.75;;;2.80;;
51862;SDS011;37900;52.996;6.278;2023-08-07T07:58:22;3.88;;;2.30;;
51862;SDS011;37900;52.996;6.278;2023-08-07T08:00:48;4.00;;;2.42;;
51862;SDS011;37900;52.996;6.278;2023-08-07T08:03:14;4.75;;;2.22;;
51862;SDS011;37900;52.996;6.278;2023-08-07T08:05:40;4.60;;;2.22;;
51862;SDS011;37900;52.996;6.278;2023-08-07T08:08:06;4.45;;;2.25;;
51862;SDS011;37900;52.996;6.278;2023-08-07T08:10:35;3.50;;;2.33;;
51862;SDS011;37900;52.996;6.278;2023-08-07T08:13:01;4.28;;;2.30;;
51862;SDS011;37900;52.996;6.278;2023-08-07T08:15:29;4.07;;;2.33;;
51862;SDS011;37900;52.996;6.278;2023-08-07T08:17:55;4.55;;;2.20;;
51862;SDS011;37900;52.996;6.278;2023-08-07T08:20:21;5.63;;;2.50;;
51862;SDS011;37900;52.996;6.278;2023-08-07T08:22:47;5.03;;;2.20;;
51862;SDS011;37900;52.996;6.278;2023-08-07T08:25:12;4.32;;;2.78;;
51862;SDS011;37900;52.996;6.278;2023-08-07T08:27:39;4.05;;;2.05;;
51862;SDS011;37900;52.996;6.278;2023-08-07T08:30:05;5.28;;;2.22;;
51862;SDS011;37900;52.996;6.278;2023-08-07T08:32:32;5.15;;;2.55;;
51862;SDS011;37900;52.996;6.278;2023-08-07T08:34:57;5.05;;;2.28;;
51862;SDS011;37900;52.996;6.278;2023-08-07T08:37:24;4.65;;;2.10;;
51862;SDS011;37900;52.996;6.278;2023-08-07T08:39:50;5.75;;;1.98;;
51862;SDS011;37900;52.996;6.278;2023-08-07T08:42:16;4.28;;;2.33;;
51862;SDS011;37900;52.996;6.278;2023-08-07T08:44:46;2.77;;;2.10;;
51862;SDS011;37900;52.996;6.278;2023-08-07T08:47:16;5.45;;;2.15;;
51862;SDS011;37900;52.996;6.278;2023-08-07T08:49:46;8.05;;;2.95;;
51862;SDS011;37900;52.996;6.278;2023-08-07T08:52:12;3.25;;;1.80;;
51862;SDS011;37900;52.996;6.278;2023-08-07T08:54:42;5.53;;;2.37;;
51862;SDS011;37900;52.996;6.278;2023-08-07T08:57:09;4.40;;;2.45;;
51862;SDS011;37900;52.996;6.278;2023-08-07T08:59:36;5.75;;;2.10;;
51862;SDS011;37900;52.996;6.278;2023-08-07T09:02:01;4.75;;;2.38;;
51862;SDS011;37900;52.996;6.278;2023-08-07T09:04:28;5.17;;;2.30;;
51862;SDS011;37900;52.996;6.278;2023-08-07T09:06:54;5.32;;;2.05;;
51862;SDS011;37900;52.996;6.278;2023-08-07T09:09:20;5.07;;;2.22;;
51862;SDS011;37900;52.996;6.278;2023-08-07T09:11:49;6.30;;;2.30;;
51862;SDS011;37900;52.996;6.278;2023-08-07T09:16:45;4.72;;;2.30;;
51862;SDS011;37900;52.996;6.278;2023-08-07T09:19:13;5.70;;;2.42;;
51862;SDS011;37900;52.996;6.278;2023-08-07T09:21:38;9.18;;;2.97;;
51862;SDS011;37900;52.996;6.278;2023-08-07T09:24:04;4.72;;;2.20;;
51862;SDS011;37900;52.996;6.278;2023-08-07T09:26:31;5.07;;;2.15;;
51862;SDS011;37900;52.996;6.278;2023-08-07T09:28:58;5.00;;;2.47;;
51862;SDS011;37900;52.996;6.278;2023-08-07T09:31:24;3.83;;;2.13;;
51862;SDS011;37900;52.996;6.278;2023-08-07T09:33:51;6.18;;;2.63;;
51862;SDS011;37900;52.996;6.278;2023-08-07T09:36:18;6.20;;;2.22;;
51862;SDS011;37900;52.996;6.278;2023-08-07T09:38:44;8.07;;;2.88;;
51862;SDS011;37900;52.996;6.278;2023-08-07T09:41:17;5.10;;;2.22;;
51862;SDS011;37900;52.996;6.278;2023-08-07T09:43:44;11.40;;;2.83;;
51862;SDS011;37900;52.996;6.278;2023-08-07T09:46:10;8.27;;;2.80;;
51862;SDS011;37900;52.996;6.278;2023-08-07T09:48:43;11.02;;;3.08;;
51862;SDS011;37900;52.996;6.278;2023-08-07T09:51:09;8.30;;;2.80;;
51862;SDS011;37900;52.996;6.278;2023-08-07T09:53:35;4.97;;;2.65;;
51862;SDS011;37900;52.996;6.278;2023-08-07T09:56:01;5.85;;;2.42;;
51862;SDS011;37900;52.996;6.278;2023-08-07T09:58:27;6.70;;;1.98;;
51862;SDS011;37900;52.996;6.278;2023-08-07T10:00:53;4.77;;;2.10;;
51862;SDS011;37900;52.996;6.278;2023-08-07T10:03:21;8.00;;;2.08;;
51862;SDS011;37900;52.996;6.278;2023-08-07T10:05:47;7.18;;;2.78;;
51862;SDS011;37900;52.996;6.278;2023-08-07T10:08:14;4.43;;;2.05;;
51862;SDS011;37900;52.996;6.278;2023-08-07T10:10:40;8.67;;;2.53;;
51862;SDS011;37900;52.996;6.278;2023-08-07T10:13:05;7.57;;;2.22;;
51862;SDS011;37900;52.996;6.278;2023-08-07T10:15:32;4.75;;;2.22;;
51862;SDS011;37900;52.996;6.278;2023-08-07T10:17:59;3.33;;;1.83;;
51862;SDS011;37900;52.996;6.278;2023-08-07T10:20:26;6.57;;;2.83;;
51862;SDS011;37900;52.996;6.278;2023-08-07T10:22:55;4.45;;;2.17;;
51862;SDS011;37900;52.996;6.278;2023-08-07T10:25:25;7.38;;;2.53;;
51862;SDS011;37900;52.996;6.278;2023-08-07T10:27:52;4.20;;;2.10;;
51862;SDS011;37900;52.996;6.278;2023-08-07T10:30:20;4.80;;;2.28;;
51862;SDS011;37900;52.996;6.278;2023-08-07T10:32:47;5.20;;;2.60;;
51862;SDS011;37900;52.996;6.278;2023-08-07T10:35:26;6.15;;;2.17;;
51862;SDS011;37900;52.996;6.278;2023-08-07T10:37:57;4.75;;;2.20;;
51862;SDS011;37900;52.996;6.278;2023-08-07T10:43:26;4.88;;;2.40;;
51862;SDS011;37900;52.996;6.278;2023-08-07T10:45:54;4.40;;;2.03;;
51862;SDS011;37900;52.996;6.278;2023-08-07T10:48:37;5.60;;;2.38;;
51862;SDS011;37900;52.996;6.278;2023-08-07T10:51:12;5.80;;;2.15;;
51862;SDS011;37900;52.996;6.278;2023-08-07T10:53:40;5.00;;;2.20;;
51862;SDS011;37900;52.996;6.278;2023-08-07T10:58:55;5.55;;;2.35;;
51862;SDS011;37900;52.996;6.278;2023-08-07T11:03:56;6.75;;;2.33;;
51862;SDS011;37900;52.996;6.278;2023-08-07T11:08:51;3.70;;;2.10;;
51862;SDS011;37900;52.996;6.278;2023-08-07T11:11:17;5.57;;;2.65;;
51862;SDS011;37900;52.996;6.278;2023-08-07T11:13:44;4.97;;;2.60;;
51862;SDS011;37900;52.996;6.278;2023-08-07T11:16:10;6.60;;;2.30;;
51862;SDS011;37900;52.996;6.278;2023-08-07T11:18:36;4.18;;;2.15;;
51862;SDS011;37900;52.996;6.278;2023-08-07T11:21:06;3.28;;;2.28;;
51862;SDS011;37900;52.996;6.278;2023-08-07T11:23:36;5.65;;;2.38;;
51862;SDS011;37900;52.996;6.278;2023-08-07T11:26:02;6.25;;;2.33;;
51862;SDS011;37900;52.996;6.278;2023-08-07T11:28:28;3.83;;;2.15;;
51862;SDS011;37900;52.996;6.278;2023-08-07T11:30:54;5.78;;;2.15;;
51862;SDS011;37900;52.996;6.278;2023-08-07T11:33:22;5.00;;;2.17;;
51862;SDS011;37900;52.996;6.278;2023-08-07T11:35:49;5.00;;;2.63;;
51862;SDS011;37900;52.996;6.278;2023-08-07T11:38:28;5.78;;;2.03;;
51862;SDS011;37900;52.996;6.278;2023-08-07T11:41:02;8.38;;;2.38;;
51862;SDS011;37900;52.996;6.278;2023-08-07T11:43:29;5.50;;;2.47;;
51862;SDS011;37900;52.996;6.278;2023-08-07T11:45:58;4.57;;;2.08;;
51862;SDS011;37900;52.996;6.278;2023-08-07T11:48:29;5.43;;;2.30;;
51862;SDS011;37900;52.996;6.278;2023-08-07T11:50:56;4.15;;;2.20;;
51862;SDS011;37900;52.996;6.278;2023-08-07T11:53:27;4.50;;;2.05;;
51862;SDS011;37900;52.996;6.278;2023-08-07T11:56:04;6.68;;;2.10;;
51862;SDS011;37900;52.996;6.278;2023-08-07T11:58:42;3.80;;;2.47;;
51862;SDS011;37900;52.996;6.278;2023-08-07T12:01:13;5.20;;;2.20;;
51862;SDS011;37900;52.996;6.278;2023-08-07T12:03:42;5.35;;;2.17;;
51862;SDS011;37900;52.996;6.278;2023-08-07T12:06:15;4.97;;;2.15;;
51862;SDS011;37900;52.996;6.278;2023-08-07T12:08:41;4.40;;;2.13;;
51862;SDS011;37900;52.996;6.278;2023-08-07T12:11:11;6.50;;;2.17;;
51862;SDS011;37900;52.996;6.278;2023-08-07T12:13:39;7.18;;;2.63;;
51862;SDS011;37900;52.996;6.278;2023-08-07T12:16:06;5.35;;;2.58;;
51862;SDS011;37900;52.996;6.278;2023-08-07T12:21:01;4.22;;;2.10;;
51862;SDS011;37900;52.996;6.278;2023-08-07T12:23:29;2.88;;;1.80;;
51862;SDS011;37900;52.996;6.278;2023-08-07T12:25:57;3.85;;;2.28;;
51862;SDS011;37900;52.996;6.278;2023-08-07T12:28:23;4.20;;;2.10;;
51862;SDS011;37900;52.996;6.278;2023-08-07T12:30:50;4.05;;;2.13;;
51862;SDS011;37900;52.996;6.278;2023-08-07T12:33:16;5.72;;;2.65;;
51862;SDS011;37900;52.996;6.278;2023-08-07T12:35:42;4.65;;;2.60;;
51862;SDS011;37900;52.996;6.278;2023-08-07T12:38:08;2.30;;;1.73;;
51862;SDS011;37900;52.996;6.278;2023-08-07T12:40:35;5.03;;;2.08;;
51862;SDS011;37900;52.996;6.278;2023-08-07T12:43:01;5.10;;;2.53;;
51862;SDS011;37900;52.996;6.278;2023-08-07T12:45:28;3.97;;;2.20;;
51862;SDS011;37900;52.996;6.278;2023-08-07T12:47:54;3.58;;;2.00;;
51862;SDS011;37900;52.996;6.278;2023-08-07T12:50:20;6.20;;;2.17;;
51862;SDS011;37900;52.996;6.278;2023-08-07T12:52:45;4.57;;;1.80;;
51862;SDS011;37900;52.996;6.278;2023-08-07T12:55:11;3.95;;;2.25;;
51862;SDS011;37900;52.996;6.278;2023-08-07T12:57:46;4.82;;;1.98;;
51862;SDS011;37900;52.996;6.278;2023-08-07T13:00:14;6.90;;;2.17;;
51862;SDS011;37900;52.996;6.278;2023-08-07T13:02:41;8.15;;;2.53;;
51862;SDS011;37900;52.996;6.278;2023-08-07T13:05:07;6.93;;;2.22;;
51862;SDS011;37900;52.996;6.278;2023-08-07T13:07:34;3.00;;;2.10;;
51862;SDS011;37900;52.996;6.278;2023-08-07T13:10:00;8.20;;;2.30;;
51862;SDS011;37900;52.996;6.278;2023-08-07T13:12:26;7.43;;;2.30;;
51862;SDS011;37900;52.996;6.278;2023-08-07T13:14:52;7.78;;;2.25;;
51862;SDS011;37900;52.996;6.278;2023-08-07T13:17:18;5.20;;;2.20;;
51862;SDS011;37900;52.996;6.278;2023-08-07T13:19:44;5.20;;;2.80;;
51862;SDS011;37900;52.996;6.278;2023-08-07T13:22:10;4.97;;;2.25;;
51862;SDS011;37900;52.996;6.278;2023-08-07T13:24:35;5.72;;;3.08;;
51862;SDS011;37900;52.996;6.278;2023-08-07T13:27:01;5.65;;;2.33;;
51862;SDS011;37900;52.996;6.278;2023-08-07T13:29:28;5.05;;;2.53;;
51862;SDS011;37900;52.996;6.278;2023-08-07T13:31:55;3.92;;;2.05;;
51862;SDS011;37900;52.996;6.278;2023-08-07T13:34:20;4.43;;;2.42;;
51862;SDS011;37900;52.996;6.278;2023-08-07T13:36:46;4.53;;;2.47;;
51862;SDS011;37900;52.996;6.278;2023-08-07T13:39:12;4.30;;;2.13;;
51862;SDS011;37900;52.996;6.278;2023-08-07T13:41:39;4.53;;;2.08;;
51862;SDS011;37900;52.996;6.278;2023-08-07T13:44:04;4.63;;;2.75;;
51862;SDS011;37900;52.996;6.278;2023-08-07T13:46:30;5.35;;;2.47;;
51862;SDS011;37900;52.996;6.278;2023-08-07T13:48:56;5.78;;;2.25;;
51862;SDS011;37900;52.996;6.278;2023-08-07T13:51:22;4.90;;;2.75;;
51862;SDS011;37900;52.996;6.278;2023-08-07T13:53:48;3.45;;;2.10;;
51862;SDS011;37900;52.996;6.278;2023-08-07T13:56:16;5.55;;;2.65;;
51862;SDS011;37900;52.996;6.278;2023-08-07T13:58:42;5.00;;;2.20;;
51862;SDS011;37900;52.996;6.278;2023-08-07T14:01:07;4.35;;;2.10;;
51862;SDS011;37900;52.996;6.278;2023-08-07T14:03:33;7.97;;;2.08;;
51862;SDS011;37900;52.996;6.278;2023-08-07T14:05:59;4.65;;;2.15;;
51862;SDS011;37900;52.996;6.278;2023-08-07T14:08:26;3.55;;;2.03;;
51862;SDS011;37900;52.996;6.278;2023-08-07T14:10:52;3.58;;;2.25;;
51862;SDS011;37900;52.996;6.278;2023-08-07T14:13:17;3.10;;;2.13;;
51862;SDS011;37900;52.996;6.278;2023-08-07T14:15:43;4.38;;;2.22;;
51862;SDS011;37900;52.996;6.278;2023-08-07T14:18:09;3.42;;;1.92;;
51862;SDS011;37900;52.996;6.278;2023-08-07T14:20:36;4.47;;;2.10;;
51862;SDS011;37900;52.996;6.278;2023-08-07T14:23:02;4.75;;;2.20;;
51862;SDS011;37900;52.996;6.278;2023-08-07T14:25:28;3.05;;;1.98;;
51862;SDS011;37900;52.996;6.278;2023-08-07T14:27:53;4.80;;;2.53;;
51862;SDS011;37900;52.996;6.278;2023-08-07T14:30:19;6.70;;;2.70;;
51862;SDS011;37900;52.996;6.278;2023-08-07T14:32:45;3.83;;;2.55;;
51862;SDS011;37900;52.996;6.278;2023-08-07T14:35:12;4.32;;;2.20;;
51862;SDS011;37900;52.996;6.278;2023-08-07T14:37:41;4.68;;;1.90;;
51862;SDS011;37900;52.996;6.278;2023-08-07T14:40:07;4.13;;;2.05;;
51862;SDS011;37900;52.996;6.278;2023-08-07T14:42:33;4.30;;;2.08;;
51862;SDS011;37900;52.996;6.278;2023-08-07T14:44:59;3.90;;;2.35;;
51862;SDS011;37900;52.996;6.278;2023-08-07T14:47:25;4.20;;;2.30;;
51862;SDS011;37900;52.996;6.278;2023-08-07T14:49:51;4.93;;;1.95;;
51862;SDS011;37900;52.996;6.278;2023-08-07T14:52:17;7.63;;;2.45;;
51862;SDS011;37900;52.996;6.278;2023-08-07T14:54:42;5.93;;;2.30;;
51862;SDS011;37900;52.996;6.278;2023-08-07T14:57:08;5.18;;;2.15;;
51862;SDS011;37900;52.996;6.278;2023-08-07T14:59:34;3.40;;;2.13;;
51862;SDS011;37900;52.996;6.278;2023-08-07T15:02:00;3.85;;;1.98;;
51862;SDS011;37900;52.996;6.278;2023-08-07T15:04:26;4.53;;;2.28;;
51862;SDS011;37900;52.996;6.278;2023-08-07T15:06:52;3.55;;;2.20;;
51862;SDS011;37900;52.996;6.278;2023-08-07T15:09:17;4.53;;;2.47;;
51862;SDS011;37900;52.996;6.278;2023-08-07T15:11:44;4.18;;;1.90;;
51862;SDS011;37900;52.996;6.278;2023-08-07T15:14:11;3.58;;;1.98;;